RLC322 KGAO-KHUM
Flight info
| Callsign | RLC322 |
|---|---|
| Flight time | 0h 30m |
| Altitude | 2000 |
| Route | DIRECT |
| Aircraft | B06/L-DOV/C |
Departure
| Time | 2026-05-07 02:18 |
|---|---|
| Airport | South Lafourche Leonard Miller Jr Airport (KGAO) |
Arrival
| Time | 2026-05-07 02:48 |
|---|---|
| Airport | Houma Terrebonne Airport (KHUM) |
| Time | Latitude | Longitude | Altitude | Speed | Heading |
|---|---|---|---|---|---|
| 2026-05-07 02:09 | 29.42912 | -90.26435 | 11 ft | 0 kts | 359° |
| 2026-05-07 02:09 | 29.42911 | -90.26435 | 11 ft | 0 kts | 359° |
| 2026-05-07 02:11 | 29.42921 | -90.26456 | 9 ft | 3 kts | 354° |
| 2026-05-07 02:11 | 29.42941 | -90.26444 | 11 ft | 3 kts | 355° |
| 2026-05-07 02:11 | 29.42947 | -90.26446 | 11 ft | 1 kts | 355° |
| 2026-05-07 02:11 | 29.42950 | -90.26437 | 22 ft | 1 kts | 356° |
| 2026-05-07 02:12 | 29.42950 | -90.26439 | 6 ft | 1 kts | 354° |
| 2026-05-07 02:17 | 29.42949 | -90.26437 | 14 ft | 4 kts | 353° |
| 2026-05-07 02:17 | 29.43054 | -90.26289 | 30 ft | 39 kts | 13° |
| 2026-05-07 02:17 | 29.43218 | -90.26153 | 17 ft | 15 kts | 13° |
| 2026-05-07 02:17 | 29.43251 | -90.26130 | 14 ft | 1 kts | 5° |
| 2026-05-07 02:18 | 29.43299 | -90.26125 | 57 ft | 26 kts | 6° |
| 2026-05-07 02:18 | 29.43714 | -90.26115 | 119 ft | 84 kts | 6° |
| 2026-05-07 02:18 | 29.44319 | -90.26105 | 332 ft | 86 kts | 8° |
| 2026-05-07 02:18 | 29.44900 | -90.26073 | 645 ft | 82 kts | 5° |
| 2026-05-07 02:19 | 29.45447 | -90.26076 | 947 ft | 77 kts | 1° |
| 2026-05-07 02:19 | 29.45988 | -90.26105 | 1252 ft | 82 kts | 358° |
| 2026-05-07 02:19 | 29.46608 | -90.26128 | 1424 ft | 97 kts | 358° |
| 2026-05-07 02:19 | 29.47318 | -90.26144 | 1552 ft | 104 kts | 358° |
| 2026-05-07 02:20 | 29.48038 | -90.26141 | 1752 ft | 103 kts | 358° |
| 2026-05-07 02:20 | 29.48749 | -90.26121 | 1933 ft | 102 kts | 358° |
| 2026-05-07 02:20 | 29.49466 | -90.26091 | 2056 ft | 108 kts | 359° |
| 2026-05-07 02:20 | 29.50284 | -90.26067 | 2025 ft | 124 kts | 359° |
| 2026-05-07 02:21 | 29.51186 | -90.26047 | 2022 ft | 135 kts | 358° |
| 2026-05-07 02:21 | 29.52105 | -90.26194 | 2018 ft | 131 kts | 324° |
| 2026-05-07 02:21 | 29.52669 | -90.26922 | 2016 ft | 119 kts | 282° |
| 2026-05-07 02:21 | 29.52892 | -90.27817 | 2015 ft | 116 kts | 269° |
| 2026-05-07 02:22 | 29.53009 | -90.28731 | 2014 ft | 116 kts | 265° |
| 2026-05-07 02:22 | 29.53101 | -90.29649 | 2013 ft | 115 kts | 265° |
| 2026-05-07 02:22 | 29.53199 | -90.30560 | 2013 ft | 115 kts | 266° |
| 2026-05-07 02:22 | 29.53309 | -90.31477 | 2012 ft | 117 kts | 266° |
| 2026-05-07 02:23 | 29.53430 | -90.32411 | 2009 ft | 118 kts | 267° |
| 2026-05-07 02:23 | 29.53562 | -90.33332 | 2009 ft | 116 kts | 268° |
| 2026-05-07 02:23 | 29.53687 | -90.34236 | 2000 ft | 114 kts | 274° |
| 2026-05-07 02:23 | 29.53784 | -90.35126 | 2010 ft | 111 kts | 268° |
| 2026-05-07 02:24 | 29.53887 | -90.36005 | 2021 ft | 111 kts | 267° |
| 2026-05-07 02:24 | 29.54012 | -90.36886 | 2022 ft | 112 kts | 268° |
| 2026-05-07 02:24 | 29.54147 | -90.37773 | 2022 ft | 113 kts | 268° |
| 2026-05-07 02:24 | 29.54285 | -90.38661 | 2030 ft | 113 kts | 269° |
| 2026-05-07 02:25 | 29.54416 | -90.39544 | 2026 ft | 112 kts | 268° |
| 2026-05-07 02:25 | 29.54690 | -90.40405 | 2024 ft | 120 kts | 289° |
| 2026-05-07 02:25 | 29.55206 | -90.41182 | 2024 ft | 124 kts | 299° |
| 2026-05-07 02:25 | 29.55786 | -90.41919 | 2023 ft | 125 kts | 301° |
| 2026-05-07 02:26 | 29.56377 | -90.42650 | 2022 ft | 125 kts | 301° |
| 2026-05-07 02:26 | 29.56961 | -90.43383 | 2022 ft | 124 kts | 301° |
| 2026-05-07 02:26 | 29.57533 | -90.44116 | 2022 ft | 123 kts | 300° |
| 2026-05-07 02:26 | 29.58097 | -90.44845 | 2022 ft | 121 kts | 300° |
| 2026-05-07 02:27 | 29.58653 | -90.45568 | 2020 ft | 120 kts | 300° |
| 2026-05-07 02:27 | 29.59207 | -90.46284 | 2019 ft | 119 kts | 299° |
| 2026-05-07 02:27 | 29.59758 | -90.46998 | 2020 ft | 119 kts | 300° |
| 2026-05-07 02:27 | 29.60304 | -90.47721 | 2020 ft | 120 kts | 300° |
| 2026-05-07 02:28 | 29.60842 | -90.48459 | 2019 ft | 120 kts | 300° |
| 2026-05-07 02:28 | 29.61363 | -90.49201 | 2020 ft | 119 kts | 299° |
| 2026-05-07 02:28 | 29.61873 | -90.49943 | 2020 ft | 118 kts | 298° |
| 2026-05-07 02:28 | 29.62384 | -90.50683 | 2020 ft | 119 kts | 298° |
| 2026-05-07 02:29 | 29.62902 | -90.51424 | 2019 ft | 119 kts | 298° |
| 2026-05-07 02:29 | 29.63432 | -90.52165 | 2020 ft | 120 kts | 298° |
| 2026-05-07 02:29 | 29.63975 | -90.52906 | 2021 ft | 122 kts | 299° |
| 2026-05-07 02:29 | 29.64531 | -90.53663 | 2022 ft | 126 kts | 299° |
| 2026-05-07 02:30 | 29.65099 | -90.54443 | 2020 ft | 128 kts | 299° |
| 2026-05-07 02:30 | 29.65667 | -90.55226 | 2019 ft | 127 kts | 299° |
| 2026-05-07 02:30 | 29.66229 | -90.55998 | 2020 ft | 125 kts | 298° |
| 2026-05-07 02:30 | 29.66792 | -90.56762 | 2021 ft | 125 kts | 298° |
| 2026-05-07 02:31 | 29.67358 | -90.57528 | 2020 ft | 126 kts | 299° |
| 2026-05-07 02:31 | 29.67928 | -90.58297 | 2020 ft | 126 kts | 298° |
| 2026-05-07 02:31 | 29.68499 | -90.59065 | 2020 ft | 127 kts | 298° |
| 2026-05-07 02:31 | 29.69079 | -90.59834 | 2020 ft | 127 kts | 298° |
| 2026-05-07 02:32 | 29.69662 | -90.60596 | 2017 ft | 126 kts | 299° |
| 2026-05-07 02:32 | 29.70240 | -90.61339 | 2016 ft | 123 kts | 299° |
| 2026-05-07 02:32 | 29.70810 | -90.62060 | 2017 ft | 121 kts | 299° |
| 2026-05-07 02:32 | 29.71378 | -90.62777 | 2013 ft | 122 kts | 299° |
| 2026-05-07 02:33 | 29.71939 | -90.63512 | 2015 ft | 119 kts | 290° |
| 2026-05-07 02:33 | 29.72041 | -90.64333 | 2014 ft | 98 kts | 241° |
| 2026-05-07 02:33 | 29.71589 | -90.64841 | 2014 ft | 91 kts | 207° |
| 2026-05-07 02:33 | 29.70983 | -90.65084 | 2020 ft | 95 kts | 198° |
| 2026-05-07 02:34 | 29.70323 | -90.65257 | 2015 ft | 99 kts | 195° |
| 2026-05-07 02:34 | 29.69654 | -90.65432 | 2016 ft | 99 kts | 195° |
| 2026-05-07 02:34 | 29.69000 | -90.65625 | 2015 ft | 98 kts | 197° |
| 2026-05-07 02:34 | 29.68337 | -90.65829 | 2017 ft | 97 kts | 198° |
| 2026-05-07 02:35 | 29.67696 | -90.66023 | 2015 ft | 96 kts | 198° |
| 2026-05-07 02:35 | 29.67053 | -90.66214 | 2018 ft | 96 kts | 198° |
| 2026-05-07 02:35 | 29.66405 | -90.66417 | 2018 ft | 97 kts | 198° |
| 2026-05-07 02:35 | 29.65748 | -90.66634 | 2017 ft | 99 kts | 198° |
| 2026-05-07 02:36 | 29.65090 | -90.66856 | 2020 ft | 99 kts | 198° |
| 2026-05-07 02:36 | 29.64433 | -90.67085 | 2020 ft | 99 kts | 198° |
| 2026-05-07 02:36 | 29.63782 | -90.67329 | 2018 ft | 97 kts | 199° |
| 2026-05-07 02:36 | 29.63155 | -90.67555 | 2020 ft | 93 kts | 198° |
| 2026-05-07 02:37 | 29.62531 | -90.67782 | 2017 ft | 93 kts | 200° |
| 2026-05-07 02:37 | 29.61914 | -90.68001 | 2020 ft | 96 kts | 198° |
| 2026-05-07 02:37 | 29.61268 | -90.68243 | 2015 ft | 98 kts | 199° |
| 2026-05-07 02:37 | 29.60630 | -90.68484 | 2016 ft | 95 kts | 198° |
| 2026-05-07 02:38 | 29.60013 | -90.68720 | 2019 ft | 92 kts | 199° |
| 2026-05-07 02:38 | 29.59408 | -90.68942 | 2025 ft | 92 kts | 199° |
| 2026-05-07 02:38 | 29.58952 | -90.69432 | 2023 ft | 99 kts | 245° |
| 2026-05-07 02:38 | 29.59033 | -90.70254 | 2023 ft | 111 kts | 281° |
| 2026-05-07 02:39 | 29.59390 | -90.71063 | 2020 ft | 116 kts | 290° |
| 2026-05-07 02:39 | 29.59819 | -90.71854 | 2020 ft | 117 kts | 292° |
| 2026-05-07 02:39 | 29.60257 | -90.72644 | 2020 ft | 117 kts | 292° |
| 2026-05-07 02:39 | 29.60688 | -90.73439 | 2020 ft | 117 kts | 291° |
| 2026-05-07 02:40 | 29.61111 | -90.74240 | 2022 ft | 117 kts | 291° |
| 2026-05-07 02:40 | 29.61525 | -90.75044 | 2022 ft | 117 kts | 290° |
| 2026-05-07 02:40 | 29.61933 | -90.75852 | 2023 ft | 117 kts | 290° |
| 2026-05-07 02:40 | 29.62337 | -90.76662 | 2022 ft | 117 kts | 290° |
| 2026-05-07 02:41 | 29.62732 | -90.77478 | 2019 ft | 116 kts | 289° |
| 2026-05-07 02:41 | 29.63121 | -90.78292 | 2018 ft | 116 kts | 289° |
| 2026-05-07 02:41 | 29.63508 | -90.79107 | 2018 ft | 116 kts | 289° |
| 2026-05-07 02:41 | 29.63894 | -90.79919 | 2018 ft | 116 kts | 289° |
| 2026-05-07 02:42 | 29.64280 | -90.80733 | 2017 ft | 116 kts | 289° |
| 2026-05-07 02:42 | 29.64664 | -90.81546 | 2017 ft | 116 kts | 289° |
| 2026-05-07 02:42 | 29.65141 | -90.82301 | 2016 ft | 124 kts | 315° |
| 2026-05-07 02:42 | 29.66009 | -90.82516 | 2017 ft | 137 kts | 4° |
| 2026-05-07 02:43 | 29.66807 | -90.81966 | 2013 ft | 134 kts | 57° |
| 2026-05-07 02:43 | 29.67060 | -90.81008 | 2016 ft | 122 kts | 98° |
| 2026-05-07 02:43 | 29.66731 | -90.80222 | 2017 ft | 105 kts | 150° |
| 2026-05-07 02:43 | 29.66096 | -90.79866 | 2018 ft | 103 kts | 160° |
| 2026-05-07 02:44 | 29.65491 | -90.79419 | 2019 ft | 103 kts | 154° |
| 2026-05-07 02:44 | 29.64931 | -90.78918 | 2010 ft | 95 kts | 149° |
| 2026-05-07 02:44 | 29.64521 | -90.78459 | 2011 ft | 69 kts | 146° |
| 2026-05-07 02:44 | 29.64271 | -90.78112 | 2025 ft | 48 kts | 146° |
| 2026-05-07 02:45 | 29.64049 | -90.77809 | 2027 ft | 54 kts | 149° |
| 2026-05-07 02:45 | 29.63744 | -90.77428 | 2023 ft | 75 kts | 149° |
| 2026-05-07 02:45 | 29.63350 | -90.76975 | 2017 ft | 84 kts | 149° |
| 2026-05-07 02:45 | 29.62918 | -90.76490 | 2018 ft | 90 kts | 148° |
| 2026-05-07 02:46 | 29.62453 | -90.75976 | 2023 ft | 96 kts | 147° |
| 2026-05-07 02:46 | 29.61976 | -90.75414 | 2024 ft | 102 kts | 138° |
| 2026-05-07 02:46 | 29.61659 | -90.74706 | 2017 ft | 94 kts | 121° |
| 2026-05-07 02:46 | 29.61498 | -90.74069 | 1952 ft | 77 kts | 117° |
| 2026-05-07 02:47 | 29.61329 | -90.73505 | 1751 ft | 72 kts | 127° |
| 2026-05-07 02:47 | 29.61169 | -90.73190 | 1616 ft | 66 kts | 136° |
| 2026-05-07 02:47 | 29.60933 | -90.72778 | 1484 ft | 60 kts | 136° |
| 2026-05-07 02:47 | 29.60692 | -90.72390 | 1392 ft | 60 kts | 138° |
| 2026-05-07 02:48 | 29.60432 | -90.72013 | 1301 ft | 60 kts | 140° |
| 2026-05-07 02:48 | 29.60173 | -90.71645 | 1246 ft | 57 kts | 136° |
| 2026-05-07 02:48 | 29.59972 | -90.71285 | 1253 ft | 51 kts | 131° |
| 2026-05-07 02:48 | 29.59814 | -90.70946 | 1252 ft | 46 kts | 129° |
| 2026-05-07 02:49 | 29.59607 | -90.70617 | 1224 ft | 60 kts | 137° |
| 2026-05-07 02:49 | 29.59299 | -90.70194 | 1154 ft | 77 kts | 138° |
| 2026-05-07 02:49 | 29.58955 | -90.69695 | 980 ft | 81 kts | 133° |
| 2026-05-07 02:49 | 29.58642 | -90.69154 | 810 ft | 79 kts | 128° |
| 2026-05-07 02:50 | 29.58355 | -90.68617 | 661 ft | 80 kts | 133° |
| 2026-05-07 02:50 | 29.58002 | -90.68125 | 544 ft | 80 kts | 135° |
| 2026-05-07 02:50 | 29.57675 | -90.67603 | 406 ft | 79 kts | 127° |
| 2026-05-07 02:50 | 29.57363 | -90.67100 | 260 ft | 76 kts | 128° |
| 2026-05-07 02:51 | 29.57093 | -90.66656 | 67 ft | 55 kts | 127° |
| 2026-05-07 02:51 | 29.56920 | -90.66387 | 68 ft | 33 kts | 129° |
| 2026-05-07 02:51 | 29.56803 | -90.66193 | 49 ft | 26 kts | 125° |
| 2026-05-07 02:51 | 29.56764 | -90.66046 | 48 ft | 15 kts | 8° |
| 2026-05-07 02:52 | 29.56890 | -90.66032 | 27 ft | 19 kts | 1° |
| 2026-05-07 02:52 | 29.56964 | -90.66030 | 26 ft | 3 kts | 6° |
| 2026-05-07 02:52 | 29.56986 | -90.66028 | 29 ft | 10 kts | 6° |
| 2026-05-07 02:52 | 29.57210 | -90.66024 | 93 ft | 43 kts | 0° |
| 2026-05-07 02:53 | 29.57399 | -90.66027 | 33 ft | 8 kts | 1° |
| 2026-05-07 02:53 | 29.57415 | -90.66020 | 41 ft | 2 kts | 5° |
| 2026-05-07 02:53 | 29.57386 | -90.66022 | 44 ft | 11 kts | 4° |
| 2026-05-07 02:53 | 29.57309 | -90.66011 | 62 ft | 11 kts | 8° |
| 2026-05-07 02:54 | 29.57278 | -90.66024 | 30 ft | 3 kts | 4° |
| 2026-05-07 02:54 | 29.57293 | -90.66026 | 25 ft | 1 kts | 4° |
| 2026-05-07 02:54 | 29.57294 | -90.66026 | 20 ft | 0 kts | 4° |
| 2026-05-07 02:55 | 29.57280 | -90.66016 | 321 ft | 4 kts | 6° |
| 2026-05-07 02:55 | 29.57264 | -90.65977 | 183 ft | 4 kts | 4° |
| 2026-05-07 02:56 | 29.57291 | -90.65998 | 46 ft | 14 kts | 2° |
| 2026-05-07 02:56 | 29.57383 | -90.65975 | 74 ft | 13 kts | 9° |
| 2026-05-07 02:56 | 29.57458 | -90.65906 | 227 ft | 15 kts | 15° |
| 2026-05-07 02:56 | 29.57527 | -90.65789 | 493 ft | 20 kts | 24° |
| 2026-05-07 02:57 | 29.57560 | -90.65838 | 425 ft | 15 kts | 206° |
| 2026-05-07 02:57 | 29.57513 | -90.65958 | 311 ft | 18 kts | 205° |
| 2026-05-07 02:57 | 29.57382 | -90.66036 | 50 ft | 26 kts | 179° |
| 2026-05-07 02:57 | 29.57315 | -90.66024 | 21 ft | 0 kts | 173° |